createdAt,value
2019-02-18T00:01:32.516Z,12.40
2019-02-18T00:04:02.195Z,12.43
2019-02-18T00:06:32.017Z,11.67
2019-02-18T00:09:01.680Z,12.53
2019-02-18T00:11:32.978Z,13.20
2019-02-18T00:14:02.635Z,12.40
2019-02-18T00:16:32.302Z,13.90
2019-02-18T00:19:01.971Z,12.77
2019-02-18T00:21:31.661Z,12.33
2019-02-18T00:24:01.337Z,12.37
2019-02-18T00:26:31.116Z,12.83
2019-02-18T00:29:00.779Z,12.20
2019-02-18T00:31:30.453Z,12.43
2019-02-18T00:34:00.125Z,12.57
2019-02-18T00:36:30.762Z,12.20
2019-02-18T00:39:00.580Z,12.60
2019-02-18T00:41:31.853Z,13.33
2019-02-18T00:44:01.527Z,13.77
2019-02-18T00:46:31.198Z,12.73
2019-02-18T00:49:01.112Z,11.90
2019-02-18T00:51:30.795Z,12.07
2019-02-18T00:54:00.724Z,13.77
2019-02-18T00:56:30.395Z,13.67
2019-02-18T00:59:00.067Z,13.80
2019-02-18T01:01:29.745Z,13.43
2019-02-18T01:03:59.394Z,13.27
2019-02-18T01:06:29.145Z,13.27
2019-02-18T01:08:58.871Z,12.70
2019-02-18T01:11:28.567Z,14.23
2019-02-18T01:13:58.324Z,12.97
2019-02-18T01:16:28.000Z,13.87
2019-02-18T01:18:57.683Z,13.33
2019-02-18T01:21:27.356Z,13.87
2019-02-18T01:23:57.023Z,13.37
2019-02-18T01:26:26.717Z,14.23
2019-02-18T01:28:56.379Z,13.47
2019-02-18T01:31:26.052Z,14.10
2019-02-18T01:33:55.728Z,13.03
2019-02-18T01:36:25.388Z,13.60
2019-02-18T01:38:55.164Z,12.90
2019-02-18T01:41:24.835Z,13.07
2019-02-18T01:43:54.502Z,13.33
2019-02-18T01:46:24.220Z,13.33
2019-02-18T01:48:53.895Z,12.83
2019-02-18T01:51:23.561Z,13.13
2019-02-18T01:53:53.236Z,12.70
2019-02-18T01:56:22.911Z,13.20
2019-02-18T01:58:52.577Z,13.60
2019-02-18T02:01:22.244Z,12.70
2019-02-18T02:03:52.896Z,12.10
2019-02-18T02:06:22.964Z,12.50
2019-02-18T02:08:52.620Z,12.67
2019-02-18T02:11:22.297Z,12.80
2019-02-18T02:13:51.960Z,13.40
2019-02-18T02:16:21.625Z,14.17
2019-02-18T02:18:51.298Z,12.90
2019-02-18T02:21:20.960Z,13.00
2019-02-18T02:23:50.895Z,13.20
2019-02-18T02:26:21.771Z,12.80
2019-02-18T02:28:51.453Z,12.57
2019-02-18T02:31:21.139Z,13.53
2019-02-18T02:33:50.809Z,12.60
2019-02-18T02:36:20.483Z,12.13
2019-02-18T02:38:50.170Z,12.43
2019-02-18T02:41:19.883Z,12.57
2019-02-18T02:43:49.540Z,11.90
2019-02-18T02:46:19.714Z,12.77
2019-02-18T02:48:49.419Z,13.07
2019-02-18T02:51:19.151Z,12.73
2019-02-18T02:53:48.827Z,12.67
2019-02-18T02:56:18.488Z,13.77
2019-02-18T02:58:48.156Z,13.70
2019-02-18T03:01:18.051Z,13.23
2019-02-18T03:03:48.137Z,12.57
2019-02-18T03:06:17.883Z,13.10
2019-02-18T03:08:48.465Z,12.55
2019-02-18T03:11:18.207Z,14.20
2019-02-18T03:13:47.875Z,12.60
2019-02-18T03:16:17.566Z,13.70
2019-02-18T03:18:47.245Z,12.90
2019-02-18T03:21:16.914Z,12.43
2019-02-18T03:23:46.587Z,12.73
2019-02-18T03:26:16.258Z,13.60
2019-02-18T03:29:36.155Z,13.03
2019-02-18T03:32:05.932Z,11.90
2019-02-18T03:34:42.026Z,12.73
2019-02-18T03:37:11.771Z,12.03
2019-02-18T03:39:41.457Z,12.60
2019-02-18T03:42:11.205Z,13.00
2019-02-18T03:44:41.114Z,12.57
2019-02-18T03:47:11.094Z,12.17
2019-02-18T03:49:41.012Z,11.23
2019-02-18T03:52:10.715Z,13.33
2019-02-18T03:54:40.372Z,12.27
2019-02-18T03:57:10.107Z,12.03
2019-02-18T03:59:39.788Z,12.10
2019-02-18T04:02:09.610Z,11.67
2019-02-18T04:04:39.361Z,12.73
2019-02-18T04:07:09.070Z,12.67
2019-02-18T04:09:38.733Z,11.63
2019-02-18T04:12:08.422Z,12.40
2019-02-18T04:14:38.176Z,12.50
2019-02-18T04:17:07.823Z,12.23
2019-02-18T04:19:37.488Z,13.00
2019-02-18T04:22:07.301Z,11.83
2019-02-18T04:24:36.970Z,11.27
2019-02-18T04:27:06.709Z,10.97
2019-02-18T04:29:36.748Z,11.60
2019-02-18T04:32:06.409Z,12.20
2019-02-18T04:34:36.078Z,12.37
2019-02-18T04:37:05.924Z,13.87
2019-02-18T04:39:35.593Z,12.57
2019-02-18T04:42:05.408Z,12.23
2019-02-18T04:44:35.231Z,12.17
2019-02-18T04:47:04.966Z,13.00
2019-02-18T04:49:34.637Z,12.17
2019-02-18T04:52:04.345Z,11.90
2019-02-18T04:54:34.028Z,11.60
2019-02-18T04:57:03.695Z,11.20
2019-02-18T04:59:33.539Z,12.30
2019-02-18T05:02:03.290Z,13.90
2019-02-18T05:04:33.214Z,12.17
2019-02-18T05:07:03.137Z,11.10
2019-02-18T05:09:32.792Z,12.23
2019-02-18T05:12:02.465Z,12.80
2019-02-18T05:14:32.140Z,13.60
2019-02-18T05:17:01.809Z,11.90
2019-02-18T05:19:31.476Z,13.43
2019-02-18T05:22:01.158Z,11.77
2019-02-18T05:24:31.117Z,12.40
2019-02-18T05:27:00.968Z,13.13
2019-02-18T05:29:30.877Z,12.93
2019-02-18T05:32:00.837Z,12.57
2019-02-18T05:34:31.481Z,12.50
2019-02-18T05:37:01.136Z,12.70
2019-02-18T05:39:31.777Z,12.70
2019-02-18T05:42:01.457Z,13.43
2019-02-18T05:44:31.144Z,12.23
2019-02-18T05:47:00.812Z,11.60
2019-02-18T05:49:30.494Z,12.53
2019-02-18T05:52:00.172Z,12.47
2019-02-18T05:54:29.834Z,12.90
2019-02-18T05:56:59.504Z,13.03
2019-02-18T05:59:29.165Z,13.00
2019-02-18T06:01:58.828Z,12.43
2019-02-18T06:04:28.499Z,13.07
2019-02-18T06:06:58.152Z,13.60
2019-02-18T06:09:30.391Z,14.30
2019-02-18T06:12:00.374Z,12.83
2019-02-18T06:14:30.521Z,13.20
2019-02-18T06:17:02.673Z,12.47
2019-02-18T06:19:31.824Z,12.43
2019-02-18T06:22:01.501Z,14.10
2019-02-18T06:24:31.173Z,13.85
2019-02-18T06:27:00.900Z,12.83
2019-02-18T06:29:30.710Z,13.72
2019-02-18T06:32:00.415Z,14.13
2019-02-18T06:34:30.085Z,13.37
2019-02-18T06:36:59.860Z,12.80
2019-02-18T06:39:40.199Z,13.20
2019-02-18T06:42:00.933Z,13.27
2019-02-18T06:44:39.127Z,14.60
2019-02-18T06:47:12.580Z,13.78
2019-02-18T06:49:42.309Z,14.53
2019-02-18T06:52:12.018Z,14.53
2019-02-18T06:54:41.676Z,14.07
2019-02-18T06:57:28.869Z,13.63
2019-02-18T07:00:16.892Z,13.80
2019-02-18T07:03:03.988Z,12.93
2019-02-18T07:05:40.804Z,12.77
2019-02-18T07:08:16.157Z,12.93
2019-02-18T07:10:51.696Z,12.70
2019-02-18T07:13:21.370Z,13.95
2019-02-18T07:15:51.026Z,13.53
2019-02-18T07:18:20.716Z,12.13
2019-02-18T07:20:50.384Z,13.80
2019-02-18T07:23:20.056Z,16.77
2019-02-18T07:25:50.038Z,14.87
2019-02-18T07:28:19.713Z,13.07
2019-02-18T07:30:49.388Z,13.77
2019-02-18T07:33:19.064Z,13.70
2019-02-18T07:35:48.756Z,14.47
2019-02-18T07:38:19.122Z,13.83
2019-02-18T07:40:48.807Z,14.63
2019-02-18T07:43:18.484Z,15.25
2019-02-18T07:45:48.172Z,16.70
2019-02-18T07:48:17.856Z,14.43
2019-02-18T07:50:47.525Z,14.03
2019-02-18T07:53:17.309Z,14.43
2019-02-18T07:55:46.978Z,14.00
2019-02-18T07:58:16.661Z,14.20
2019-02-18T08:00:46.361Z,13.50
2019-02-18T08:03:16.162Z,16.07
2019-02-18T08:05:45.914Z,17.00
2019-02-18T08:08:15.629Z,24.80
2019-02-18T08:10:45.355Z,24.87
2019-02-18T08:13:15.154Z,20.12
2019-02-18T08:15:44.823Z,21.17
2019-02-18T08:18:14.495Z,18.87
2019-02-18T08:20:44.192Z,18.10
2019-02-18T08:23:13.883Z,17.55
2019-02-18T08:25:43.549Z,17.00
2019-02-18T08:28:13.220Z,17.17
2019-02-18T08:30:42.908Z,15.95
2019-02-18T08:33:12.590Z,16.15
2019-02-18T08:35:42.334Z,16.43
2019-02-18T08:38:12.009Z,16.60
2019-02-18T08:40:41.674Z,15.30
2019-02-18T08:43:12.103Z,14.50
2019-02-18T08:45:41.766Z,15.57
2019-02-18T08:48:12.416Z,15.00
2019-02-18T08:50:42.084Z,14.47
2019-02-18T08:53:12.733Z,15.18
2019-02-18T08:55:42.917Z,15.37
2019-02-18T08:58:12.585Z,16.33
2019-02-18T09:00:42.596Z,14.40
2019-02-18T09:03:12.305Z,14.43
2019-02-18T09:05:41.960Z,14.10
2019-02-18T09:08:12.614Z,14.13
2019-02-18T09:10:42.296Z,13.93
2019-02-18T09:13:12.051Z,13.20
2019-02-18T09:15:41.712Z,14.05
2019-02-18T09:18:11.403Z,12.87
2019-02-18T09:20:41.397Z,12.37
2019-02-18T09:23:33.383Z,13.33
2019-02-18T09:26:04.029Z,12.90
2019-02-18T09:28:33.727Z,12.80
2019-02-18T09:31:03.393Z,12.53
2019-02-18T09:33:33.074Z,12.90
2019-02-18T09:36:02.827Z,12.20
2019-02-18T09:38:39.137Z,12.60
2019-02-18T09:41:08.896Z,12.30
2019-02-18T09:43:38.570Z,11.40
2019-02-18T09:46:08.394Z,12.90
2019-02-18T09:48:38.069Z,12.27
2019-02-18T09:51:07.744Z,12.63
2019-02-18T09:53:37.420Z,12.27
2019-02-18T09:56:07.169Z,13.00
2019-02-18T09:58:36.856Z,11.83
2019-02-18T10:01:06.533Z,12.00
2019-02-18T10:03:36.900Z,12.63
2019-02-18T10:06:06.714Z,12.10
2019-02-18T10:08:36.374Z,12.33
2019-02-18T10:11:06.204Z,12.00
2019-02-18T10:13:35.864Z,12.03
2019-02-18T10:16:05.602Z,11.77
2019-02-18T10:18:35.302Z,11.43
2019-02-18T10:21:05.366Z,10.90
2019-02-18T10:23:35.254Z,11.33
2019-02-18T10:26:05.006Z,12.27
2019-02-18T10:28:34.691Z,12.40
2019-02-18T10:31:05.095Z,11.73
2019-02-18T10:33:34.778Z,11.67
2019-02-18T10:36:04.856Z,11.80
2019-02-18T10:38:34.543Z,11.10
2019-02-18T10:41:07.216Z,11.57
2019-02-18T10:43:36.592Z,10.70
2019-02-18T10:46:06.370Z,10.37
2019-02-18T10:48:36.118Z,10.40
2019-02-18T10:51:05.805Z,10.40
2019-02-18T10:53:35.735Z,10.67
2019-02-18T10:56:05.477Z,10.93
2019-02-18T10:58:35.158Z,10.80
2019-02-18T11:01:05.495Z,11.20
2019-02-18T11:03:35.177Z,10.30
2019-02-18T11:06:05.223Z,10.93
2019-02-18T11:08:34.899Z,11.43
2019-02-18T11:11:05.078Z,11.20
2019-02-18T11:13:34.762Z,12.27
2019-02-18T11:16:04.901Z,11.33
2019-02-18T11:18:34.610Z,10.93
2019-02-18T11:21:04.986Z,10.70
2019-02-18T11:23:34.683Z,10.93
2019-02-18T11:26:05.159Z,11.60
2019-02-18T11:28:34.835Z,10.90
2019-02-18T11:31:04.874Z,10.80
2019-02-18T11:33:34.546Z,12.67
2019-02-18T11:36:05.015Z,11.15
2019-02-18T11:38:34.783Z,11.20
2019-02-18T11:41:05.154Z,10.88
2019-02-18T11:43:35.028Z,10.70
2019-02-18T11:46:05.352Z,11.10
2019-02-18T11:48:35.573Z,12.03
2019-02-18T11:51:05.409Z,12.50
2019-02-18T11:53:35.125Z,12.00
2019-02-18T11:56:04.874Z,11.57
2019-02-18T11:58:34.558Z,11.17
2019-02-18T12:01:05.250Z,11.33
2019-02-18T12:03:34.920Z,11.33
2019-02-18T12:06:05.626Z,11.70
2019-02-18T12:08:35.295Z,12.07
2019-02-18T12:11:05.316Z,12.77
2019-02-18T12:13:35.223Z,12.07
2019-02-18T12:16:05.119Z,12.03
2019-02-18T12:18:36.019Z,11.33
2019-02-18T12:21:06.059Z,11.67
2019-02-18T12:23:35.730Z,11.90
2019-02-18T12:26:05.406Z,12.23
2019-02-18T12:28:35.100Z,11.90
2019-02-18T12:31:04.921Z,11.80
2019-02-18T12:33:35.190Z,12.97
2019-02-18T12:36:05.094Z,12.30
2019-02-18T12:38:34.790Z,11.83
2019-02-18T12:41:05.841Z,12.88
2019-02-18T12:43:35.511Z,12.33
2019-02-18T12:46:15.291Z,12.73
2019-02-18T12:48:36.970Z,12.63
2019-02-18T12:51:06.927Z,12.13
2019-02-18T12:53:36.597Z,12.47
2019-02-18T12:56:06.362Z,12.60
2019-02-18T12:58:36.122Z,12.53
2019-02-18T13:01:06.578Z,15.87
2019-02-18T13:03:36.258Z,13.30
2019-02-18T13:06:06.115Z,13.10
2019-02-18T13:08:35.798Z,13.70
2019-02-18T13:11:05.641Z,13.77
2019-02-18T13:13:35.943Z,12.57
2019-02-18T13:16:05.693Z,13.00
2019-02-18T13:18:35.805Z,13.00
2019-02-18T13:21:05.495Z,14.10
2019-02-18T13:23:35.494Z,13.47
2019-02-18T13:26:05.726Z,12.30
2019-02-18T13:28:35.671Z,12.43
2019-02-18T13:31:05.350Z,13.00
2019-02-18T13:33:35.311Z,11.47
2019-02-18T13:36:10.517Z,12.80
2019-02-18T13:38:41.389Z,12.40
2019-02-18T13:41:11.386Z,13.13
2019-02-18T13:43:41.070Z,13.10
2019-02-18T13:46:11.226Z,12.63
2019-02-18T13:48:40.908Z,12.83
2019-02-18T13:51:10.565Z,12.30
2019-02-18T13:53:40.239Z,12.33
2019-02-18T13:56:10.338Z,12.17
2019-02-18T13:58:40.299Z,13.60
2019-02-18T14:01:11.001Z,13.20
2019-02-18T14:03:40.702Z,13.23
2019-02-18T14:06:10.475Z,12.37
2019-02-18T14:08:40.396Z,12.50
2019-02-18T14:11:10.316Z,12.23
2019-02-18T14:13:40.003Z,12.33
2019-02-18T14:16:09.810Z,12.53
2019-02-18T14:18:39.910Z,12.63
2019-02-18T14:21:09.670Z,12.30
2019-02-18T14:23:39.334Z,12.53
2019-02-18T14:26:09.540Z,11.90
2019-02-18T14:28:39.486Z,12.20
2019-02-18T14:31:09.241Z,12.10
2019-02-18T14:33:39.173Z,11.90
2019-02-18T14:36:08.947Z,12.20
2019-02-18T14:38:38.610Z,12.77
2019-02-18T14:41:08.541Z,11.07
2019-02-18T14:43:38.570Z,11.77
2019-02-18T14:46:08.532Z,11.97
2019-02-18T14:48:38.931Z,11.67
2019-02-18T14:51:09.136Z,11.57
2019-02-18T14:53:38.829Z,11.43
2019-02-18T14:56:10.157Z,11.23
2019-02-18T14:58:40.262Z,11.13
2019-02-18T15:01:10.098Z,11.33
2019-02-18T15:03:39.902Z,10.57
2019-02-18T15:06:09.696Z,12.83
2019-02-18T15:08:40.383Z,11.07
2019-02-18T15:11:10.336Z,12.07
2019-02-18T15:13:40.427Z,11.97
2019-02-18T15:16:10.188Z,11.77
2019-02-18T15:18:39.866Z,12.17
2019-02-18T15:21:09.660Z,11.37
2019-02-18T15:23:39.640Z,13.60
2019-02-18T15:26:09.479Z,12.43
2019-02-18T15:28:39.282Z,12.50
2019-02-18T15:31:09.434Z,13.32
2019-02-18T15:33:40.117Z,12.10
2019-02-18T15:36:09.794Z,11.53
2019-02-18T15:38:39.990Z,12.53
2019-02-18T15:41:09.737Z,12.07
2019-02-18T15:43:39.977Z,12.43
2019-02-18T15:46:09.756Z,12.37
2019-02-18T15:48:39.804Z,11.80
2019-02-18T15:51:09.662Z,12.37
2019-02-18T15:53:39.544Z,13.17
2019-02-18T15:56:09.271Z,12.37
2019-02-18T15:58:38.997Z,12.60
2019-02-18T16:01:08.756Z,12.43
2019-02-18T16:03:38.527Z,12.60
2019-02-18T16:06:08.234Z,12.20
2019-02-18T16:08:38.076Z,11.43
2019-02-18T16:11:08.079Z,11.67
2019-02-18T16:13:38.080Z,11.23
2019-02-18T16:16:07.762Z,10.83
2019-02-18T16:18:37.450Z,11.83
2019-02-18T16:21:07.262Z,10.13
2019-02-18T16:23:36.967Z,10.77
2019-02-18T16:26:06.706Z,11.23
2019-02-18T16:28:36.367Z,10.43
2019-02-18T16:31:06.515Z,10.60
2019-02-18T16:33:36.442Z,10.03
2019-02-18T16:36:06.125Z,11.63
2019-02-18T16:38:35.814Z,11.70
2019-02-18T16:41:05.494Z,12.63
2019-02-18T16:43:35.549Z,13.25
2019-02-18T16:46:05.524Z,12.67
2019-02-18T16:48:35.578Z,14.07
2019-02-18T16:51:05.274Z,13.13
2019-02-18T16:53:34.973Z,13.53
2019-02-18T16:56:05.131Z,12.50
2019-02-18T16:58:34.813Z,13.13
2019-02-18T17:01:06.745Z,13.85
2019-02-18T17:03:36.882Z,15.07
2019-02-18T17:06:06.635Z,13.43
2019-02-18T17:08:36.331Z,13.97
2019-02-18T17:11:06.026Z,12.80
2019-02-18T17:13:36.053Z,13.77
2019-02-18T17:16:05.900Z,13.33
2019-02-18T17:18:35.757Z,15.93
2019-02-18T17:21:05.538Z,15.53
2019-02-18T17:23:35.233Z,16.50
2019-02-18T17:26:04.947Z,16.20
2019-02-18T17:28:34.628Z,15.93
2019-02-18T17:31:05.200Z,15.58
2019-02-18T17:33:35.051Z,14.90
2019-02-18T17:36:04.747Z,24.83
2019-02-18T17:38:34.419Z,23.13
2019-02-18T17:41:04.309Z,21.77
2019-02-18T17:43:33.993Z,19.12
2019-02-18T17:46:03.898Z,21.30
2019-02-18T17:48:33.991Z,20.67
2019-02-18T17:51:03.666Z,17.10
2019-02-18T17:53:33.634Z,16.93
2019-02-18T17:56:05.316Z,16.12
2019-02-18T17:58:35.077Z,15.50
2019-02-18T18:01:05.025Z,14.30
2019-02-18T18:03:34.722Z,13.20
2019-02-18T18:06:05.385Z,14.13
2019-02-18T18:08:35.751Z,13.72
2019-02-18T18:11:05.581Z,15.73
2019-02-18T18:13:35.282Z,15.73
2019-02-18T18:16:05.238Z,14.23
2019-02-18T18:18:35.108Z,14.23
2019-02-18T18:21:05.133Z,14.03
2019-02-18T18:23:35.552Z,12.80
2019-02-18T18:26:05.234Z,13.40
2019-02-18T18:28:35.154Z,14.00
2019-02-18T18:31:05.390Z,14.13
2019-02-18T18:33:35.322Z,14.47
2019-02-18T18:36:05.406Z,17.50
2019-02-18T18:38:35.081Z,17.50
2019-02-18T18:41:04.877Z,14.33
2019-02-18T18:43:35.841Z,13.23
2019-02-18T18:46:06.120Z,14.28
2019-02-18T18:48:35.888Z,13.33
2019-02-18T18:51:05.988Z,13.50
2019-02-18T18:53:35.757Z,12.37
2019-02-18T18:56:06.401Z,13.27
2019-02-18T18:58:36.337Z,12.60
2019-02-18T19:01:06.154Z,14.53
2019-02-18T19:03:36.839Z,13.13
2019-02-18T19:06:06.586Z,14.00
2019-02-18T19:08:36.262Z,13.43
2019-02-18T19:11:06.119Z,14.63
2019-02-18T19:13:41.899Z,13.90
2019-02-18T19:16:07.384Z,14.20
2019-02-18T19:18:37.099Z,14.47
2019-02-18T19:21:07.045Z,38.27
2019-02-18T19:23:37.460Z,49.50
2019-02-18T19:26:07.720Z,40.27
2019-02-18T19:28:37.406Z,41.37
2019-02-18T19:31:07.272Z,38.53
2019-02-18T19:33:37.036Z,30.23
2019-02-18T19:36:06.796Z,24.03
2019-02-18T19:38:37.097Z,20.80
2019-02-18T19:41:06.775Z,17.30
2019-02-18T19:43:36.476Z,13.80
2019-02-18T19:46:06.171Z,13.30
2019-02-18T19:48:36.124Z,14.23
2019-02-18T19:51:06.092Z,15.23
2019-02-18T19:53:35.806Z,15.30
2019-02-18T19:56:05.564Z,15.90
2019-02-18T19:58:35.276Z,16.33
2019-02-18T20:01:05.692Z,18.53
2019-02-18T20:03:36.327Z,17.63
2019-02-18T20:06:06.020Z,17.20
2019-02-18T20:08:35.754Z,18.13
2019-02-18T20:11:05.909Z,18.67
2019-02-18T20:13:35.587Z,18.03
2019-02-18T20:16:05.797Z,16.93
2019-02-18T20:18:38.444Z,16.40
2019-02-18T20:21:08.336Z,16.83
2019-02-18T20:23:38.201Z,15.77
2019-02-18T20:26:07.882Z,20.10
2019-02-18T20:28:37.797Z,17.93
2019-02-18T20:31:07.494Z,16.70
2019-02-18T20:33:37.380Z,18.37
2019-02-18T20:36:07.212Z,28.43
2019-02-18T20:38:36.989Z,22.90
2019-02-18T20:41:06.655Z,21.73
2019-02-18T20:43:36.446Z,20.97
2019-02-18T20:46:08.038Z,17.43
2019-02-18T20:48:37.819Z,18.07
2019-02-18T20:51:07.497Z,18.33
2019-02-18T20:53:37.188Z,18.03
2019-02-18T20:56:08.009Z,18.00
2019-02-18T20:58:38.191Z,17.47
2019-02-18T21:01:07.862Z,18.63
2019-02-18T21:03:37.793Z,18.00
2019-02-18T21:06:07.624Z,17.70
2019-02-18T21:08:37.309Z,18.67
2019-02-18T21:11:07.236Z,18.40
2019-02-18T21:13:37.211Z,16.93
2019-02-18T21:16:07.118Z,18.87
2019-02-18T21:18:36.814Z,18.60
2019-02-18T21:21:06.491Z,18.10
2019-02-18T21:23:36.166Z,18.33
2019-02-18T21:26:05.953Z,17.03
2019-02-18T21:28:36.286Z,18.27
2019-02-18T21:31:06.180Z,17.93
2019-02-18T21:33:35.857Z,18.07
2019-02-18T21:36:05.616Z,19.40
2019-02-18T21:38:35.297Z,19.33
2019-02-18T21:41:05.800Z,18.82
2019-02-18T21:43:35.734Z,19.73
2019-02-18T21:46:05.433Z,17.90
2019-02-18T21:48:35.536Z,21.70
2019-02-18T21:51:05.557Z,24.87
2019-02-18T21:53:35.227Z,23.63
2019-02-18T21:56:05.509Z,27.03
2019-02-18T21:58:35.172Z,25.90
2019-02-18T22:01:05.140Z,25.00
2019-02-18T22:03:34.822Z,23.90
2019-02-18T22:06:04.921Z,23.77
2019-02-18T22:08:34.595Z,24.97
2019-02-18T22:11:04.903Z,23.27
2019-02-18T22:13:34.590Z,23.53
2019-02-18T22:16:05.263Z,21.70
2019-02-18T22:18:35.274Z,22.60
2019-02-18T22:21:05.916Z,22.47
2019-02-18T22:23:35.627Z,23.10
2019-02-18T22:26:05.600Z,19.87
2019-02-18T22:28:35.844Z,19.80
2019-02-18T22:31:06.488Z,18.33
2019-02-18T22:33:36.564Z,18.80
2019-02-18T22:36:06.386Z,19.10
2019-02-18T22:38:36.281Z,18.07
2019-02-18T22:41:06.149Z,18.00
2019-02-18T22:43:35.820Z,19.13
2019-02-18T22:46:05.565Z,18.33
2019-02-18T22:48:35.346Z,19.83
2019-02-18T22:51:05.720Z,17.13
2019-02-18T22:53:35.404Z,17.93
2019-02-18T22:56:05.335Z,18.77
2019-02-18T22:58:35.008Z,18.00
2019-02-18T23:01:05.559Z,17.35
2019-02-18T23:03:35.485Z,16.13
2019-02-18T23:06:05.364Z,15.93
2019-02-18T23:08:35.180Z,16.67
2019-02-18T23:11:05.236Z,15.53
2019-02-18T23:13:35.017Z,16.30
2019-02-18T23:16:04.728Z,17.20
2019-02-18T23:18:34.524Z,16.53
2019-02-18T23:21:05.249Z,16.35
2019-02-18T23:23:34.937Z,14.97
2019-02-18T23:26:05.320Z,15.05
2019-02-18T23:28:35.640Z,15.13
2019-02-18T23:31:05.312Z,17.00
2019-02-18T23:33:35.839Z,15.45
2019-02-18T23:36:05.908Z,16.23
2019-02-18T23:38:35.580Z,15.67
2019-02-18T23:41:05.325Z,15.23
2019-02-18T23:43:34.990Z,15.90
2019-02-18T23:46:05.016Z,15.35
2019-02-18T23:48:34.705Z,14.13
2019-02-18T23:51:05.032Z,13.97
2019-02-18T23:53:34.780Z,14.43
2019-02-18T23:56:05.318Z,14.80
2019-02-18T23:58:35.079Z,14.33
